createdAt,value
2017-03-25T00:00:31.572Z,0
2017-03-25T00:01:32.813Z,0
2017-03-25T00:02:34.052Z,0
2017-03-25T00:03:35.326Z,0
2017-03-25T00:04:36.541Z,0
2017-03-25T00:05:37.786Z,0
2017-03-25T00:06:39.075Z,0
2017-03-25T00:07:40.553Z,0
2017-03-25T00:08:41.809Z,0
2017-03-25T00:09:43.024Z,0
2017-03-25T00:10:44.377Z,0
2017-03-25T00:11:45.562Z,0
2017-03-25T00:12:46.808Z,0
2017-03-25T00:13:48.060Z,0
2017-03-25T00:14:49.284Z,0
2017-03-25T00:15:50.579Z,0
2017-03-25T00:16:51.808Z,0
2017-03-25T00:17:53.040Z,0
2017-03-25T00:18:54.266Z,0
2017-03-25T00:19:55.528Z,0
2017-03-25T00:20:56.793Z,0
2017-03-25T00:21:58.049Z,0
2017-03-25T00:22:59.275Z,0
2017-03-25T00:24:00.543Z,0
2017-03-25T00:25:01.811Z,0
2017-03-25T00:26:03.054Z,0
2017-03-25T00:27:04.319Z,0
2017-03-25T00:28:05.542Z,0
2017-03-25T00:29:06.827Z,0
2017-03-25T00:30:08.057Z,0
2017-03-25T00:31:09.308Z,0
2017-03-25T00:32:10.528Z,0
2017-03-25T00:33:11.826Z,0
2017-03-25T00:34:13.054Z,0
2017-03-25T00:35:14.282Z,0
2017-03-25T00:36:15.523Z,0
2017-03-25T00:37:16.761Z,0
2017-03-25T00:38:18.011Z,0
2017-03-25T00:39:19.252Z,0
2017-03-25T00:40:20.488Z,0
2017-03-25T00:41:21.735Z,0
2017-03-25T00:42:22.965Z,0
2017-03-25T00:43:24.196Z,0
2017-03-25T00:44:25.449Z,0
2017-03-25T00:45:26.666Z,0
2017-03-25T00:46:27.934Z,0
2017-03-25T00:47:29.134Z,0
2017-03-25T00:48:30.393Z,0
2017-03-25T00:49:31.654Z,0
2017-03-25T00:50:32.890Z,0
2017-03-25T00:51:34.136Z,0
2017-03-25T00:52:35.356Z,0
2017-03-25T00:53:36.616Z,0
2017-03-25T00:54:37.847Z,0
2017-03-25T00:55:39.086Z,0
2017-03-25T00:56:40.336Z,0
2017-03-25T00:57:41.568Z,0
2017-03-25T00:58:42.833Z,0
2017-03-25T00:59:44.082Z,0
2017-03-25T01:00:45.331Z,0
2017-03-25T01:01:46.650Z,0
2017-03-25T01:02:47.889Z,0
2017-03-25T01:03:49.132Z,0
2017-03-25T01:04:50.365Z,0
2017-03-25T01:05:51.663Z,0
2017-03-25T01:06:53.082Z,0
2017-03-25T01:07:54.329Z,0
2017-03-25T01:08:55.566Z,0
2017-03-25T01:09:56.873Z,0
2017-03-25T01:10:58.110Z,0
2017-03-25T01:11:59.361Z,0
2017-03-25T01:13:00.616Z,0
2017-03-25T01:14:01.872Z,0
2017-03-25T01:15:03.109Z,0
2017-03-25T01:16:04.487Z,0
2017-03-25T01:17:05.636Z,0
2017-03-25T01:18:06.972Z,0
2017-03-25T01:19:08.266Z,0
2017-03-25T01:20:09.515Z,0
2017-03-25T01:21:10.754Z,0
2017-03-25T01:22:11.987Z,0
2017-03-25T01:23:13.221Z,0
2017-03-25T01:24:14.571Z,0
2017-03-25T01:25:15.856Z,0
2017-03-25T01:26:17.103Z,0
2017-03-25T01:27:18.328Z,0
2017-03-25T01:28:19.557Z,0
2017-03-25T01:29:20.798Z,0
2017-03-25T01:30:22.046Z,0
2017-03-25T01:31:23.270Z,0
2017-03-25T01:32:24.550Z,0
2017-03-25T01:33:25.774Z,0
2017-03-25T01:34:27.005Z,0
2017-03-25T01:35:28.274Z,0
2017-03-25T01:36:29.499Z,0
2017-03-25T01:37:30.748Z,0
2017-03-25T01:38:32.025Z,0
2017-03-25T01:39:33.262Z,0
2017-03-25T01:40:34.497Z,0
2017-03-25T01:41:35.743Z,0
2017-03-25T01:42:36.980Z,0
2017-03-25T01:43:38.210Z,0
2017-03-25T01:44:39.435Z,0
2017-03-25T01:45:40.665Z,0
2017-03-25T01:46:41.897Z,0
2017-03-25T01:47:43.142Z,0
2017-03-25T01:48:44.492Z,0
2017-03-25T01:49:45.722Z,0
2017-03-25T01:50:46.985Z,0
2017-03-25T01:51:48.314Z,0
2017-03-25T01:52:49.574Z,0
2017-03-25T01:53:50.779Z,0
2017-03-25T01:54:52.016Z,0
2017-03-25T01:55:53.249Z,0
2017-03-25T01:56:54.499Z,0
2017-03-25T01:57:55.735Z,0
2017-03-25T01:58:56.974Z,0
2017-03-25T01:59:58.209Z,0
2017-03-25T02:00:59.474Z,0
2017-03-25T02:02:00.771Z,0
2017-03-25T02:03:02.025Z,0
2017-03-25T02:04:03.248Z,0
2017-03-25T02:05:04.493Z,0
2017-03-25T02:06:05.735Z,0
2017-03-25T02:07:06.985Z,0
2017-03-25T02:08:08.219Z,0
2017-03-25T02:09:09.461Z,0
2017-03-25T02:10:10.768Z,0
2017-03-25T02:11:12.011Z,0
2017-03-25T02:12:13.244Z,0
2017-03-25T02:13:14.482Z,0
2017-03-25T02:14:15.723Z,0
2017-03-25T02:15:16.978Z,0
2017-03-25T02:16:18.193Z,0
2017-03-25T02:17:19.431Z,0
2017-03-25T02:18:20.661Z,0
2017-03-25T02:19:21.892Z,0
2017-03-25T02:20:23.129Z,0
2017-03-25T02:21:24.480Z,0
2017-03-25T02:22:25.741Z,0
2017-03-25T02:23:26.996Z,0
2017-03-25T02:24:28.391Z,0
2017-03-25T02:25:29.613Z,0
2017-03-25T02:26:30.842Z,0
2017-03-25T02:27:32.074Z,0
2017-03-25T02:28:33.326Z,0
2017-03-25T02:29:34.564Z,0
2017-03-25T02:30:35.810Z,0
2017-03-25T02:31:37.043Z,0
2017-03-25T02:32:38.315Z,0
2017-03-25T02:33:39.530Z,0
2017-03-25T02:34:40.801Z,0
2017-03-25T02:35:42.013Z,0
2017-03-25T02:36:43.279Z,0
2017-03-25T02:37:44.594Z,0
2017-03-25T02:38:45.805Z,0
2017-03-25T02:39:47.048Z,0
2017-03-25T02:40:48.418Z,0
2017-03-25T02:41:49.717Z,0
2017-03-25T02:42:51.108Z,0
2017-03-25T02:43:52.340Z,0
2017-03-25T02:44:53.575Z,0
2017-03-25T02:45:54.832Z,0
2017-03-25T02:46:56.055Z,0
2017-03-25T02:47:57.294Z,0
2017-03-25T02:48:58.535Z,0
2017-03-25T02:49:59.778Z,0
2017-03-25T02:51:01.103Z,0
2017-03-25T02:52:02.352Z,0
2017-03-25T02:53:03.600Z,0
2017-03-25T02:54:04.852Z,0
2017-03-25T02:55:06.143Z,0
2017-03-25T02:56:07.425Z,0
2017-03-25T02:57:08.645Z,0
2017-03-25T02:58:09.919Z,0
2017-03-25T02:59:11.149Z,0
2017-03-25T03:00:12.406Z,0
2017-03-25T03:01:13.628Z,0
2017-03-25T03:02:14.889Z,0
2017-03-25T03:03:16.158Z,0
2017-03-25T03:04:17.401Z,0
2017-03-25T03:05:18.721Z,0
2017-03-25T03:06:19.969Z,0
2017-03-25T03:07:21.232Z,0
2017-03-25T03:08:22.463Z,0
2017-03-25T03:09:23.697Z,0
2017-03-25T03:10:24.949Z,0
2017-03-25T03:11:26.177Z,0
2017-03-25T03:12:27.406Z,0
2017-03-25T03:13:28.644Z,0
2017-03-25T03:14:29.913Z,0
2017-03-25T03:15:31.172Z,0
2017-03-25T03:16:32.388Z,0
2017-03-25T03:17:33.631Z,0
2017-03-25T03:18:34.924Z,0
2017-03-25T03:19:36.172Z,0
2017-03-25T03:20:37.403Z,0
2017-03-25T03:21:38.646Z,0
2017-03-25T03:22:39.886Z,0
2017-03-25T03:23:41.125Z,0
2017-03-25T03:24:42.353Z,0
2017-03-25T03:25:43.586Z,0
2017-03-25T03:26:44.825Z,0
2017-03-25T03:27:46.115Z,0
2017-03-25T03:28:47.353Z,0
2017-03-25T03:29:48.592Z,0
2017-03-25T03:30:49.832Z,0
2017-03-25T03:31:51.088Z,0
2017-03-25T03:32:52.335Z,0
2017-03-25T03:33:53.572Z,0
2017-03-25T03:34:54.837Z,0
2017-03-25T03:35:56.076Z,0
2017-03-25T03:36:57.306Z,0
2017-03-25T03:37:58.576Z,0
2017-03-25T03:38:59.813Z,0
2017-03-25T03:40:01.054Z,0
2017-03-25T03:41:02.312Z,0
2017-03-25T03:42:03.520Z,0
2017-03-25T03:43:04.771Z,0
2017-03-25T03:44:05.989Z,0
2017-03-25T03:45:07.211Z,0
2017-03-25T03:46:08.467Z,0
2017-03-25T03:47:09.718Z,0
2017-03-25T03:48:10.981Z,0
2017-03-25T03:49:12.201Z,0
2017-03-25T03:50:13.433Z,0
2017-03-25T03:51:14.666Z,0
2017-03-25T03:52:15.897Z,0
2017-03-25T03:53:17.126Z,0
2017-03-25T03:54:18.375Z,0
2017-03-25T03:55:19.610Z,0
2017-03-25T03:56:20.850Z,0
2017-03-25T03:57:22.078Z,0
2017-03-25T03:58:23.308Z,0
2017-03-25T03:59:24.559Z,0
2017-03-25T04:00:25.779Z,0
2017-03-25T04:01:27.041Z,0
2017-03-25T04:02:28.369Z,0
2017-03-25T04:03:29.619Z,0
2017-03-25T04:04:30.881Z,0
2017-03-25T04:05:32.118Z,0
2017-03-25T04:06:33.378Z,0
2017-03-25T04:07:34.600Z,0
2017-03-25T04:08:35.895Z,0
2017-03-25T04:09:37.142Z,0
2017-03-25T04:10:38.462Z,0
2017-03-25T04:11:39.688Z,0
2017-03-25T04:12:40.909Z,0
2017-03-25T04:13:42.168Z,0
2017-03-25T04:14:43.397Z,0
2017-03-25T04:15:44.648Z,0
2017-03-25T04:16:45.874Z,0
2017-03-25T04:17:47.132Z,0
2017-03-25T04:18:48.395Z,0
2017-03-25T04:19:49.572Z,0
2017-03-25T04:20:50.815Z,0
2017-03-25T04:21:52.057Z,0
2017-03-25T04:22:53.303Z,0
2017-03-25T04:23:54.527Z,0
2017-03-25T04:24:55.761Z,0
2017-03-25T04:25:56.987Z,0
2017-03-25T04:26:58.248Z,0
2017-03-25T04:27:59.496Z,0
2017-03-25T04:29:00.801Z,0
2017-03-25T04:30:02.031Z,0
2017-03-25T04:31:03.284Z,0
2017-03-25T04:32:04.515Z,0
2017-03-25T04:33:05.742Z,0
2017-03-25T04:34:06.979Z,0
2017-03-25T04:35:08.231Z,0
2017-03-25T04:36:09.441Z,0
2017-03-25T04:37:10.721Z,0
2017-03-25T04:38:11.955Z,0
2017-03-25T04:39:13.192Z,0
2017-03-25T04:40:14.453Z,0
2017-03-25T04:41:15.703Z,0
2017-03-25T04:42:16.970Z,0
2017-03-25T04:43:18.203Z,0
2017-03-25T04:44:19.460Z,0
2017-03-25T04:45:20.673Z,0
2017-03-25T04:46:21.909Z,0
2017-03-25T04:47:23.143Z,0
2017-03-25T04:48:24.401Z,0
2017-03-25T04:49:25.651Z,0
2017-03-25T04:50:26.987Z,0
2017-03-25T04:51:28.228Z,0
2017-03-25T04:52:29.457Z,0
2017-03-25T04:53:30.734Z,0
2017-03-25T04:54:32.056Z,0
2017-03-25T04:55:33.306Z,0
2017-03-25T04:56:34.542Z,0
2017-03-25T04:57:35.786Z,0
2017-03-25T04:58:37.077Z,0
2017-03-25T04:59:38.385Z,0
2017-03-25T05:00:39.623Z,0
2017-03-25T05:01:40.917Z,0
2017-03-25T05:02:42.171Z,0
2017-03-25T05:03:43.415Z,0
2017-03-25T05:04:44.708Z,0
2017-03-25T05:05:45.937Z,0
2017-03-25T05:06:47.174Z,0
2017-03-25T05:07:48.416Z,0
2017-03-25T05:08:49.704Z,0
2017-03-25T05:09:50.951Z,0
2017-03-25T05:10:52.186Z,0
2017-03-25T05:11:53.420Z,5
2017-03-25T05:12:54.692Z,5
2017-03-25T05:13:56.043Z,5
2017-03-25T05:14:57.244Z,5
2017-03-25T05:15:58.471Z,5
2017-03-25T05:16:59.698Z,5
2017-03-25T05:18:00.937Z,10
2017-03-25T05:19:02.166Z,10
2017-03-25T05:20:03.425Z,10
2017-03-25T05:21:04.773Z,10
2017-03-25T05:22:06.003Z,10
2017-03-25T05:23:07.246Z,15
2017-03-25T05:24:08.481Z,15
2017-03-25T05:25:09.715Z,15
2017-03-25T05:26:10.951Z,15
2017-03-25T05:27:12.210Z,20
2017-03-25T05:28:13.423Z,20
2017-03-25T05:29:14.710Z,20
2017-03-25T05:30:15.957Z,25
2017-03-25T05:31:17.176Z,25
2017-03-25T05:32:18.418Z,30
2017-03-25T05:33:19.660Z,30
2017-03-25T05:34:20.997Z,30
2017-03-25T05:35:22.226Z,35
2017-03-25T05:36:23.466Z,35
2017-03-25T05:37:24.723Z,35
2017-03-25T05:38:25.944Z,40
2017-03-25T05:39:27.188Z,40
2017-03-25T05:40:28.490Z,45
2017-03-25T05:41:29.719Z,45
2017-03-25T05:42:30.958Z,45
2017-03-25T05:43:32.188Z,50
2017-03-25T05:44:33.418Z,50
2017-03-25T05:45:34.663Z,55
2017-03-25T05:46:35.966Z,55
2017-03-25T05:47:37.223Z,55
2017-03-25T05:48:38.532Z,60
2017-03-25T05:49:39.782Z,60
2017-03-25T05:50:41.012Z,60
2017-03-25T05:51:42.266Z,65
2017-03-25T05:52:43.630Z,65
2017-03-25T05:53:44.890Z,70
2017-03-25T05:54:46.112Z,70
2017-03-25T05:55:47.391Z,75
2017-03-25T05:56:48.651Z,80
2017-03-25T05:57:49.869Z,85
2017-03-25T05:58:51.200Z,85
2017-03-25T05:59:52.510Z,90
2017-03-25T06:00:53.755Z,95
2017-03-25T06:01:55.010Z,100
2017-03-25T06:02:56.252Z,100
2017-03-25T06:03:57.475Z,105
2017-03-25T06:04:58.722Z,110
2017-03-25T06:05:59.973Z,115
2017-03-25T06:07:01.281Z,120
2017-03-25T06:08:02.576Z,130
2017-03-25T06:09:03.808Z,135
2017-03-25T06:10:05.060Z,140
2017-03-25T06:11:06.306Z,140
2017-03-25T06:12:07.584Z,145
2017-03-25T06:13:08.828Z,150
2017-03-25T06:14:10.074Z,155
2017-03-25T06:15:11.312Z,165
2017-03-25T06:16:12.652Z,170
2017-03-25T06:17:13.942Z,175
2017-03-25T06:18:15.342Z,185
2017-03-25T06:19:16.557Z,190
2017-03-25T06:20:17.787Z,190
2017-03-25T06:21:19.032Z,195
2017-03-25T06:22:20.268Z,200
2017-03-25T06:23:21.507Z,205
2017-03-25T06:24:22.737Z,210
2017-03-25T06:25:23.975Z,210
2017-03-25T06:26:25.245Z,215
2017-03-25T06:27:26.496Z,220
2017-03-25T06:28:27.776Z,225
2017-03-25T06:29:29.014Z,235
2017-03-25T06:30:30.277Z,235
2017-03-25T06:31:31.585Z,245
2017-03-25T06:32:32.835Z,255
2017-03-25T06:33:34.057Z,265
2017-03-25T06:34:35.301Z,275
2017-03-25T06:35:36.542Z,295
2017-03-25T06:36:37.768Z,315
2017-03-25T06:37:39.112Z,335
2017-03-25T06:38:40.390Z,350
2017-03-25T06:39:41.612Z,365
2017-03-25T06:40:42.864Z,375
2017-03-25T06:41:44.109Z,375
2017-03-25T06:42:45.346Z,375
2017-03-25T06:43:46.589Z,380
2017-03-25T06:44:47.829Z,380
2017-03-25T06:45:49.097Z,375
2017-03-25T06:46:50.328Z,370
2017-03-25T06:47:51.564Z,385
2017-03-25T06:48:52.828Z,405
2017-03-25T06:49:54.090Z,435
2017-03-25T06:50:55.324Z,445
2017-03-25T06:51:56.558Z,480
2017-03-25T06:52:57.792Z,505
2017-03-25T06:53:59.129Z,535
2017-03-25T06:55:00.511Z,535
2017-03-25T06:56:01.738Z,520
2017-03-25T06:57:03.013Z,535
2017-03-25T06:58:04.260Z,550
2017-03-25T06:59:05.505Z,580
2017-03-25T07:00:06.767Z,585
2017-03-25T07:01:08.022Z,655
2017-03-25T07:02:09.256Z,680
2017-03-25T07:03:10.589Z,660
2017-03-25T07:04:11.874Z,705
2017-03-25T07:05:13.211Z,720
2017-03-25T07:06:14.455Z,745
2017-03-25T07:07:15.695Z,775
2017-03-25T07:08:16.941Z,800
2017-03-25T07:09:18.202Z,790
2017-03-25T07:10:19.452Z,785
2017-03-25T07:11:20.734Z,810
2017-03-25T07:12:21.948Z,865
2017-03-25T07:13:23.220Z,855
2017-03-25T07:14:24.459Z,840
2017-03-25T07:15:25.686Z,850
2017-03-25T07:16:26.973Z,860
2017-03-25T07:17:28.223Z,875
2017-03-25T07:18:29.497Z,905
2017-03-25T07:19:30.773Z,950
2017-03-25T07:20:31.993Z,985
2017-03-25T07:21:33.246Z,1020
2017-03-25T07:22:34.509Z,1035
2017-03-25T07:23:35.757Z,1060
2017-03-25T07:24:37.037Z,1040
2017-03-25T07:25:38.249Z,1050
2017-03-25T07:26:39.499Z,1025
2017-03-25T07:27:40.749Z,1030
2017-03-25T07:28:41.990Z,1060
2017-03-25T07:29:43.253Z,1050
2017-03-25T07:30:44.489Z,1005
2017-03-25T07:31:45.736Z,960
2017-03-25T07:32:47.011Z,930
2017-03-25T07:33:48.315Z,940
2017-03-25T07:34:49.610Z,955
2017-03-25T07:35:50.900Z,960
2017-03-25T07:36:52.153Z,975
2017-03-25T07:37:53.410Z,975
2017-03-25T07:38:54.665Z,960
2017-03-25T07:39:55.908Z,965
2017-03-25T07:40:57.176Z,965
2017-03-25T07:41:58.505Z,975
2017-03-25T07:42:59.743Z,975
2017-03-25T07:44:01.050Z,970
2017-03-25T07:45:02.296Z,980
2017-03-25T07:46:03.542Z,1015
2017-03-25T07:47:04.801Z,1010
2017-03-25T07:48:06.050Z,1035
2017-03-25T07:49:07.384Z,1015
2017-03-25T07:50:08.627Z,880
2017-03-25T07:51:09.971Z,940
2017-03-25T07:52:11.230Z,1055
2017-03-25T07:53:12.570Z,1070
2017-03-25T07:54:13.788Z,1040
2017-03-25T07:55:15.080Z,1035
2017-03-25T07:56:16.293Z,1040
2017-03-25T07:57:17.542Z,1040
2017-03-25T07:58:18.844Z,1065
2017-03-25T07:59:20.143Z,1075
2017-03-25T08:00:21.414Z,1085
2017-03-25T08:01:22.766Z,1075
2017-03-25T08:02:24.019Z,1100
2017-03-25T08:03:25.275Z,1095
2017-03-25T08:04:26.655Z,1055
2017-03-25T08:05:27.924Z,1065
2017-03-25T08:06:29.160Z,1050
2017-03-25T08:07:30.404Z,1030
2017-03-25T08:08:31.855Z,1015
2017-03-25T08:09:33.116Z,975
2017-03-25T08:10:34.413Z,985
2017-03-25T08:11:35.703Z,1045
2017-03-25T08:12:36.952Z,1035
2017-03-25T08:13:38.200Z,965
2017-03-25T08:14:39.454Z,985
2017-03-25T08:15:40.699Z,1000
2017-03-25T08:16:42.042Z,985
2017-03-25T08:17:43.339Z,995
2017-03-25T08:18:44.733Z,1005
2017-03-25T08:19:45.966Z,1000
2017-03-25T08:20:47.216Z,1005
2017-03-25T08:21:48.456Z,1005
2017-03-25T08:22:49.715Z,1005
2017-03-25T08:23:50.972Z,1005
2017-03-25T08:24:52.221Z,985
2017-03-25T08:25:53.493Z,995
2017-03-25T08:26:54.778Z,1010
2017-03-25T08:27:56.053Z,1005
2017-03-25T08:28:57.370Z,1000
2017-03-25T08:29:58.639Z,1000
2017-03-25T08:30:59.891Z,1000
2017-03-25T08:32:01.137Z,1000
2017-03-25T08:33:02.416Z,1000
2017-03-25T08:34:03.653Z,1020
2017-03-25T08:35:04.935Z,1030
2017-03-25T08:36:06.211Z,1030
2017-03-25T08:37:07.472Z,1025
2017-03-25T08:38:08.833Z,1030
2017-03-25T08:39:10.028Z,1025
2017-03-25T08:40:11.285Z,1030
2017-03-25T08:41:12.540Z,1020
2017-03-25T08:42:13.795Z,1020
2017-03-25T08:43:15.049Z,1015
2017-03-25T08:44:16.314Z,1005
2017-03-25T08:45:17.536Z,1005
2017-03-25T08:46:18.917Z,1020
2017-03-25T08:47:20.183Z,1020
2017-03-25T08:48:21.471Z,1045
2017-03-25T08:49:22.822Z,1060
2017-03-25T08:50:24.099Z,1060
2017-03-25T08:51:25.361Z,1055
2017-03-25T08:52:26.717Z,1065
2017-03-25T08:53:28.036Z,1070
2017-03-25T08:54:29.331Z,1090
2017-03-25T08:55:30.587Z,1105
2017-03-25T08:56:31.855Z,1110
2017-03-25T08:57:33.099Z,1125
2017-03-25T08:58:34.351Z,1125
2017-03-25T08:59:35.620Z,1145
2017-03-25T09:00:36.946Z,1160
2017-03-25T09:01:38.198Z,1160
2017-03-25T09:02:39.513Z,925
2017-03-25T09:03:40.729Z,1180
2017-03-25T09:04:42.073Z,1215
2017-03-25T09:05:43.372Z,1235
2017-03-25T09:06:44.674Z,1255
2017-03-25T09:07:45.906Z,1280
2017-03-25T09:08:47.189Z,1300
2017-03-25T09:09:48.464Z,1350
2017-03-25T09:10:49.729Z,1455
2017-03-25T09:11:51.051Z,1520
2017-03-25T09:12:52.305Z,1570
2017-03-25T09:13:53.562Z,1670
2017-03-25T09:14:54.869Z,1785
2017-03-25T09:15:56.149Z,1915
2017-03-25T09:16:57.446Z,2035
2017-03-25T09:17:58.802Z,1985
2017-03-25T09:19:00.065Z,1975
2017-03-25T09:20:01.349Z,2005
2017-03-25T09:21:02.594Z,2040
2017-03-25T09:22:03.893Z,2075
2017-03-25T09:23:05.213Z,2060
2017-03-25T09:24:06.479Z,2095
2017-03-25T09:25:07.745Z,2120
2017-03-25T09:26:08.993Z,2165
2017-03-25T09:27:10.281Z,2155
2017-03-25T09:28:11.643Z,2200
2017-03-25T09:29:12.900Z,2205
2017-03-25T09:30:14.158Z,2185
2017-03-25T09:31:15.422Z,2170
2017-03-25T09:32:16.789Z,2060
2017-03-25T09:33:18.036Z,2125
2017-03-25T09:34:19.327Z,2215
2017-03-25T09:35:20.594Z,2310
2017-03-25T09:36:21.855Z,2300
2017-03-25T09:37:23.123Z,2340
2017-03-25T09:38:24.375Z,2255
2017-03-25T09:39:25.630Z,2140
2017-03-25T09:40:27.007Z,2215
2017-03-25T09:41:28.272Z,2245
2017-03-25T09:42:29.537Z,2285
2017-03-25T09:43:30.813Z,2235
2017-03-25T09:44:32.063Z,2185
2017-03-25T09:45:33.354Z,2200
2017-03-25T09:46:34.672Z,2135
2017-03-25T09:47:35.930Z,2460
2017-03-25T09:48:37.312Z,2385
2017-03-25T09:49:38.563Z,2320
2017-03-25T09:50:39.972Z,2370
2017-03-25T09:51:41.210Z,2360
2017-03-25T09:52:42.466Z,2470
2017-03-25T09:53:43.852Z,2580
2017-03-25T09:54:45.122Z,2655
2017-03-25T09:55:46.397Z,2495
2017-03-25T09:56:47.635Z,2405
2017-03-25T09:57:48.994Z,2230
2017-03-25T09:58:50.247Z,2270
2017-03-25T09:59:51.499Z,2275
2017-03-25T10:00:52.753Z,2195
2017-03-25T10:01:54.094Z,2265
2017-03-25T10:02:55.464Z,2315
2017-03-25T10:03:56.744Z,2375
2017-03-25T10:04:58.021Z,2430
2017-03-25T10:05:59.354Z,2485
2017-03-25T10:07:00.660Z,2600
2017-03-25T10:08:01.909Z,2665
2017-03-25T10:09:03.183Z,2675
2017-03-25T10:10:04.449Z,2690
2017-03-25T10:11:05.744Z,2660
2017-03-25T10:12:06.964Z,2610
2017-03-25T10:13:08.249Z,2135
2017-03-25T10:14:09.479Z,2230
2017-03-25T10:15:10.778Z,1365
2017-03-25T10:16:12.047Z,2840
2017-03-25T10:17:13.317Z,2865
2017-03-25T10:18:14.575Z,2730
2017-03-25T10:19:15.840Z,1920
2017-03-25T10:20:17.125Z,1945
2017-03-25T10:21:18.409Z,2245
2017-03-25T10:22:19.727Z,2170
2017-03-25T10:23:21.035Z,1715
2017-03-25T10:24:22.287Z,2020
2017-03-25T10:25:23.531Z,2090
2017-03-25T10:26:24.883Z,2295
2017-03-25T10:27:26.167Z,2440
2017-03-25T10:28:27.499Z,2810
2017-03-25T10:29:28.778Z,2285
2017-03-25T10:30:30.029Z,2120
2017-03-25T10:31:31.301Z,2075
2017-03-25T10:32:32.688Z,2175
2017-03-25T10:33:34.032Z,2215
2017-03-25T10:34:35.344Z,2040
2017-03-25T10:35:36.593Z,1970
2017-03-25T10:36:37.852Z,2055
2017-03-25T10:37:39.132Z,2135
2017-03-25T10:38:40.387Z,2090
2017-03-25T10:39:41.640Z,2300
2017-03-25T10:40:42.930Z,2310
2017-03-25T10:41:44.203Z,2415
2017-03-25T10:42:45.474Z,2280
2017-03-25T10:43:46.777Z,1940
2017-03-25T10:44:48.105Z,1605
2017-03-25T10:45:49.361Z,1455
2017-03-25T10:46:50.614Z,1020
2017-03-25T10:47:51.868Z,575
2017-03-25T10:48:53.122Z,530
2017-03-25T10:49:54.362Z,515
2017-03-25T10:50:55.610Z,510
2017-03-25T10:51:56.939Z,500
2017-03-25T10:52:58.237Z,485
2017-03-25T10:53:59.441Z,475
2017-03-25T10:55:00.707Z,470
2017-03-25T10:56:01.949Z,460
2017-03-25T10:57:03.230Z,450
2017-03-25T10:58:04.590Z,440
2017-03-25T10:59:05.854Z,430
2017-03-25T11:00:07.171Z,415
2017-03-25T11:01:08.412Z,400
2017-03-25T11:02:09.663Z,385
2017-03-25T11:03:10.956Z,375
2017-03-25T11:04:12.179Z,375
2017-03-25T11:05:13.536Z,375
2017-03-25T11:06:14.760Z,370
2017-03-25T11:07:16.009Z,370
2017-03-25T11:08:17.269Z,365
2017-03-25T11:09:18.591Z,360
2017-03-25T11:10:19.884Z,350
2017-03-25T11:11:21.243Z,350
2017-03-25T11:12:22.452Z,345
2017-03-25T11:13:23.696Z,345
2017-03-25T11:14:25.006Z,340
2017-03-25T11:15:26.289Z,345
2017-03-25T11:16:27.540Z,355
2017-03-25T11:17:28.815Z,370
2017-03-25T11:18:30.057Z,375
2017-03-25T11:19:31.279Z,350
2017-03-25T11:20:32.539Z,320
2017-03-25T11:21:33.784Z,305
2017-03-25T11:22:35.044Z,295
2017-03-25T11:23:36.314Z,285
2017-03-25T11:24:37.530Z,280
2017-03-25T11:25:38.813Z,270
2017-03-25T11:26:40.073Z,265
2017-03-25T11:27:41.322Z,270
2017-03-25T11:28:42.548Z,280
2017-03-25T11:29:43.807Z,275
2017-03-25T11:30:45.039Z,275
2017-03-25T11:31:46.296Z,275
2017-03-25T11:32:47.538Z,270
2017-03-25T11:33:48.789Z,270
2017-03-25T11:34:50.044Z,265
2017-03-25T11:35:51.295Z,265
2017-03-25T11:36:52.549Z,260
2017-03-25T11:37:53.811Z,260
2017-03-25T11:38:55.052Z,255
2017-03-25T11:39:56.315Z,255
2017-03-25T11:40:57.553Z,250
2017-03-25T11:41:58.814Z,250
2017-03-25T11:43:00.040Z,245
2017-03-25T11:44:01.293Z,245
2017-03-25T11:45:02.535Z,240
2017-03-25T11:46:03.776Z,240
2017-03-25T11:47:05.141Z,235
2017-03-25T11:48:06.424Z,240
2017-03-25T11:49:07.664Z,235
2017-03-25T11:50:08.963Z,235
2017-03-25T11:51:10.209Z,235
2017-03-25T11:52:11.492Z,235
2017-03-25T11:53:12.761Z,235
2017-03-25T11:54:14.001Z,235
2017-03-25T11:55:15.287Z,235
2017-03-25T11:56:16.530Z,235
2017-03-25T11:57:17.776Z,235
2017-03-25T11:58:19.055Z,235
2017-03-25T11:59:20.415Z,230
2017-03-25T12:00:21.584Z,235
2017-03-25T12:01:22.834Z,230
2017-03-25T12:02:24.075Z,230
2017-03-25T12:03:25.421Z,230
2017-03-25T12:04:26.674Z,230
2017-03-25T12:05:27.909Z,225
2017-03-25T12:06:29.300Z,225
2017-03-25T12:07:30.539Z,225
2017-03-25T12:08:31.991Z,220
2017-03-25T12:09:33.239Z,220
2017-03-25T12:10:34.495Z,220
2017-03-25T12:11:35.791Z,215
2017-03-25T12:12:37.074Z,215
2017-03-25T12:13:38.323Z,215
2017-03-25T12:14:39.577Z,215
2017-03-25T12:15:40.847Z,210
2017-03-25T12:16:42.080Z,210
2017-03-25T12:17:43.529Z,210
2017-03-25T12:18:44.783Z,210
2017-03-25T12:19:46.028Z,210
2017-03-25T12:20:47.304Z,210
2017-03-25T12:21:48.548Z,210
2017-03-25T12:22:49.836Z,210
2017-03-25T12:23:51.082Z,210
2017-03-25T12:24:52.396Z,210
2017-03-25T12:25:53.694Z,210
2017-03-25T12:26:54.934Z,210
2017-03-25T12:27:56.181Z,205
2017-03-25T12:28:57.424Z,205
2017-03-25T12:29:58.677Z,205
2017-03-25T12:30:59.931Z,205
2017-03-25T12:32:01.318Z,200
2017-03-25T12:33:02.563Z,200
2017-03-25T12:34:03.798Z,200
2017-03-25T12:35:05.041Z,200
2017-03-25T12:36:06.340Z,200
2017-03-25T12:37:07.592Z,195
2017-03-25T12:38:08.866Z,195
2017-03-25T12:39:10.080Z,195
2017-03-25T12:40:11.328Z,195
2017-03-25T12:41:12.587Z,195
2017-03-25T12:42:13.855Z,190
2017-03-25T12:43:15.207Z,195
2017-03-25T12:44:16.446Z,190
2017-03-25T12:45:17.695Z,190
2017-03-25T12:46:18.958Z,190
2017-03-25T12:47:20.201Z,190
2017-03-25T12:48:21.441Z,190
2017-03-25T12:49:22.786Z,190
2017-03-25T12:50:24.034Z,190
2017-03-25T12:51:25.427Z,190
2017-03-25T12:52:26.708Z,190
2017-03-25T12:53:27.992Z,190
2017-03-25T12:54:29.252Z,190
2017-03-25T12:55:30.507Z,190
2017-03-25T12:56:31.911Z,185
2017-03-25T12:57:33.180Z,185
2017-03-25T12:58:34.422Z,185
2017-03-25T12:59:35.663Z,185
2017-03-25T13:00:36.979Z,185
2017-03-25T13:01:38.193Z,185
2017-03-25T13:02:39.517Z,185
2017-03-25T13:03:40.763Z,185
2017-03-25T13:04:42.010Z,185
2017-03-25T13:05:43.321Z,185
2017-03-25T13:06:44.603Z,185
2017-03-25T13:07:45.837Z,185
2017-03-25T13:08:47.088Z,185
2017-03-25T13:09:48.325Z,185
2017-03-25T13:10:49.586Z,185
2017-03-25T13:11:50.822Z,185
2017-03-25T13:12:52.074Z,185
2017-03-25T13:13:53.307Z,185
2017-03-25T13:14:54.621Z,190
2017-03-25T13:15:55.849Z,190
2017-03-25T13:16:57.091Z,190
2017-03-25T13:17:58.325Z,190
2017-03-25T13:18:59.812Z,195
2017-03-25T13:20:01.167Z,190
2017-03-25T13:21:02.423Z,190
2017-03-25T13:22:03.664Z,190
2017-03-25T13:23:05.013Z,195
2017-03-25T13:24:06.273Z,195
2017-03-25T13:25:07.651Z,195
2017-03-25T13:26:08.913Z,195
2017-03-25T13:27:10.169Z,195
2017-03-25T13:28:11.411Z,200
2017-03-25T13:29:12.699Z,200
2017-03-25T13:30:13.984Z,200
2017-03-25T13:31:15.235Z,200
2017-03-25T13:32:16.495Z,205
2017-03-25T13:33:17.747Z,205
2017-03-25T13:34:19.046Z,205
2017-03-25T13:35:20.320Z,205
2017-03-25T13:36:21.586Z,210
2017-03-25T13:37:23.030Z,210
2017-03-25T13:38:24.283Z,210
2017-03-25T13:39:25.543Z,210
2017-03-25T13:40:26.803Z,215
2017-03-25T13:41:28.035Z,215
2017-03-25T13:42:29.291Z,215
2017-03-25T13:43:30.635Z,215
2017-03-25T13:44:31.883Z,210
2017-03-25T13:45:33.153Z,215
2017-03-25T13:46:34.429Z,215
2017-03-25T13:47:35.652Z,215
2017-03-25T13:48:36.903Z,215
2017-03-25T13:49:38.206Z,215
2017-03-25T13:50:39.495Z,215
2017-03-25T13:51:40.749Z,215
2017-03-25T13:52:41.972Z,215
2017-03-25T13:53:43.247Z,215
2017-03-25T13:54:44.523Z,215
2017-03-25T13:55:45.815Z,215
2017-03-25T13:56:47.079Z,215
2017-03-25T13:57:48.332Z,215
2017-03-25T13:58:49.577Z,215
2017-03-25T14:04:59.891Z,205
2017-03-25T14:06:01.159Z,205
2017-03-25T14:07:02.415Z,205
2017-03-25T14:08:03.844Z,205
2017-03-25T14:09:05.109Z,205
2017-03-25T14:10:06.346Z,205
2017-03-25T14:11:07.719Z,200
2017-03-25T14:12:08.979Z,200
2017-03-25T14:13:10.234Z,195
2017-03-25T14:14:11.512Z,195
2017-03-25T14:15:12.758Z,195
2017-03-25T14:16:14.014Z,195
2017-03-25T14:17:15.262Z,195
2017-03-25T14:18:16.552Z,195
2017-03-25T14:19:17.895Z,195
2017-03-25T14:20:19.122Z,195
2017-03-25T14:21:20.369Z,195
2017-03-25T14:22:21.644Z,195
2017-03-25T14:23:22.875Z,195
2017-03-25T14:24:24.134Z,195
2017-03-25T14:25:25.390Z,195